sensor_id;sensor_type;location;lat;lon;timestamp;temperature;humidity
9209;DHT22;4639;48.862;9.188;2023-05-07T00:01:56;16.60;99.90
9209;DHT22;4639;48.862;9.188;2023-05-07T00:04:21;16.60;99.90
9209;DHT22;4639;48.862;9.188;2023-05-07T00:06:47;16.60;99.90
9209;DHT22;4639;48.862;9.188;2023-05-07T00:09:12;16.70;99.90
9209;DHT22;4639;48.862;9.188;2023-05-07T00:11:38;16.70;99.90
9209;DHT22;4639;48.862;9.188;2023-05-07T00:14:03;16.70;99.90
9209;DHT22;4639;48.862;9.188;2023-05-07T00:16:29;16.80;99.90
9209;DHT22;4639;48.862;9.188;2023-05-07T00:18:55;16.80;99.90
9209;DHT22;4639;48.862;9.188;2023-05-07T00:21:20;16.80;99.90
9209;DHT22;4639;48.862;9.188;2023-05-07T00:23:47;16.80;99.90
9209;DHT22;4639;48.862;9.188;2023-05-07T00:26:12;17.00;99.90
9209;DHT22;4639;48.862;9.188;2023-05-07T00:28:38;16.80;99.90
9209;DHT22;4639;48.862;9.188;2023-05-07T00:31:03;16.80;99.90
9209;DHT22;4639;48.862;9.188;2023-05-07T00:33:29;16.80;99.90
9209;DHT22;4639;48.862;9.188;2023-05-07T00:35:54;16.80;99.90
9209;DHT22;4639;48.862;9.188;2023-05-07T00:38:20;16.90;99.90
9209;DHT22;4639;48.862;9.188;2023-05-07T00:40:46;17.00;99.90
9209;DHT22;4639;48.862;9.188;2023-05-07T00:43:11;16.70;99.90
9209;DHT22;4639;48.862;9.188;2023-05-07T00:45:38;16.80;99.90
9209;DHT22;4639;48.862;9.188;2023-05-07T00:48:04;16.60;99.90
9209;DHT22;4639;48.862;9.188;2023-05-07T00:50:30;16.50;99.90
9209;DHT22;4639;48.862;9.188;2023-05-07T00:52:56;16.50;99.90
9209;DHT22;4639;48.862;9.188;2023-05-07T00:55:22;16.40;99.90
9209;DHT22;4639;48.862;9.188;2023-05-07T00:57:49;16.40;99.90
9209;DHT22;4639;48.862;9.188;2023-05-07T01:00:16;16.30;99.90
9209;DHT22;4639;48.862;9.188;2023-05-07T01:02:42;16.20;99.90
9209;DHT22;4639;48.862;9.188;2023-05-07T01:05:11;16.20;99.90
9209;DHT22;4639;48.862;9.188;2023-05-07T01:07:38;16.20;99.90
9209;DHT22;4639;48.862;9.188;2023-05-07T01:10:05;16.20;99.90
9209;DHT22;4639;48.862;9.188;2023-05-07T01:12:32;16.20;99.90
9209;DHT22;4639;48.862;9.188;2023-05-07T01:14:58;16.10;99.90
9209;DHT22;4639;48.862;9.188;2023-05-07T01:17:24;16.10;99.90
9209;DHT22;4639;48.862;9.188;2023-05-07T01:19:50;16.10;99.90
9209;DHT22;4639;48.862;9.188;2023-05-07T01:22:16;16.10;99.90
9209;DHT22;4639;48.862;9.188;2023-05-07T01:24:46;16.10;99.90
9209;DHT22;4639;48.862;9.188;2023-05-07T01:27:11;16.10;99.90
9209;DHT22;4639;48.862;9.188;2023-05-07T01:29:37;16.10;99.90
9209;DHT22;4639;48.862;9.188;2023-05-07T01:32:03;16.00;99.90
9209;DHT22;4639;48.862;9.188;2023-05-07T01:34:32;16.00;99.90
9209;DHT22;4639;48.862;9.188;2023-05-07T01:36:59;16.00;99.90
9209;DHT22;4639;48.862;9.188;2023-05-07T01:39:26;16.00;99.90
9209;DHT22;4639;48.862;9.188;2023-05-07T01:41:54;16.00;99.90
9209;DHT22;4639;48.862;9.188;2023-05-07T01:44:20;16.00;99.90
9209;DHT22;4639;48.862;9.188;2023-05-07T01:46:47;16.00;99.90
9209;DHT22;4639;48.862;9.188;2023-05-07T01:49:14;16.00;99.90
9209;DHT22;4639;48.862;9.188;2023-05-07T01:51:40;16.00;99.90
9209;DHT22;4639;48.862;9.188;2023-05-07T01:54:06;16.00;99.90
9209;DHT22;4639;48.862;9.188;2023-05-07T01:56:34;16.00;99.90
9209;DHT22;4639;48.862;9.188;2023-05-07T01:59:00;16.00;99.90
9209;DHT22;4639;48.862;9.188;2023-05-07T02:01:26;16.00;99.90
9209;DHT22;4639;48.862;9.188;2023-05-07T02:03:51;15.90;99.90
9209;DHT22;4639;48.862;9.188;2023-05-07T02:06:17;15.90;99.90
9209;DHT22;4639;48.862;9.188;2023-05-07T02:08:42;15.90;99.90
9209;DHT22;4639;48.862;9.188;2023-05-07T02:11:08;15.80;99.90
9209;DHT22;4639;48.862;9.188;2023-05-07T02:13:34;15.70;99.90
9209;DHT22;4639;48.862;9.188;2023-05-07T02:16:00;15.80;99.90
9209;DHT22;4639;48.862;9.188;2023-05-07T02:18:26;15.60;99.90
9209;DHT22;4639;48.862;9.188;2023-05-07T02:20:52;15.50;99.90
9209;DHT22;4639;48.862;9.188;2023-05-07T02:23:17;15.50;99.90
9209;DHT22;4639;48.862;9.188;2023-05-07T02:25:43;15.40;99.90
9209;DHT22;4639;48.862;9.188;2023-05-07T02:28:09;15.50;99.90
9209;DHT22;4639;48.862;9.188;2023-05-07T02:30:37;15.60;99.90
9209;DHT22;4639;48.862;9.188;2023-05-07T02:33:02;15.50;99.90
9209;DHT22;4639;48.862;9.188;2023-05-07T02:35:28;15.50;99.90
9209;DHT22;4639;48.862;9.188;2023-05-07T02:37:54;15.60;99.90
9209;DHT22;4639;48.862;9.188;2023-05-07T02:40:19;15.60;99.90
9209;DHT22;4639;48.862;9.188;2023-05-07T02:42:45;15.60;99.90
9209;DHT22;4639;48.862;9.188;2023-05-07T02:45:10;15.60;99.90
9209;DHT22;4639;48.862;9.188;2023-05-07T02:47:36;15.50;99.90
9209;DHT22;4639;48.862;9.188;2023-05-07T02:50:02;15.50;99.90
9209;DHT22;4639;48.862;9.188;2023-05-07T02:52:28;15.40;99.90
9209;DHT22;4639;48.862;9.188;2023-05-07T02:54:53;15.70;99.90
9209;DHT22;4639;48.862;9.188;2023-05-07T02:57:19;15.40;99.90
9209;DHT22;4639;48.862;9.188;2023-05-07T02:59:44;15.40;99.90
9209;DHT22;4639;48.862;9.188;2023-05-07T03:02:10;15.40;99.90
9209;DHT22;4639;48.862;9.188;2023-05-07T03:04:35;15.40;99.90
9209;DHT22;4639;48.862;9.188;2023-05-07T03:07:01;15.70;99.90
9209;DHT22;4639;48.862;9.188;2023-05-07T03:09:27;15.50;99.90
9209;DHT22;4639;48.862;9.188;2023-05-07T03:11:53;15.30;99.90
9209;DHT22;4639;48.862;9.188;2023-05-07T03:14:18;15.20;99.90
9209;DHT22;4639;48.862;9.188;2023-05-07T03:16:44;15.20;99.90
9209;DHT22;4639;48.862;9.188;2023-05-07T03:19:09;15.20;99.90
9209;DHT22;4639;48.862;9.188;2023-05-07T03:21:35;15.10;99.90
9209;DHT22;4639;48.862;9.188;2023-05-07T03:24:01;15.00;99.90
9209;DHT22;4639;48.862;9.188;2023-05-07T03:26:26;15.10;99.90
9209;DHT22;4639;48.862;9.188;2023-05-07T03:28:52;14.90;99.90
9209;DHT22;4639;48.862;9.188;2023-05-07T03:31:18;14.80;99.90
9209;DHT22;4639;48.862;9.188;2023-05-07T03:33:52;14.80;99.90
9209;DHT22;4639;48.862;9.188;2023-05-07T03:36:18;14.80;99.90
9209;DHT22;4639;48.862;9.188;2023-05-07T03:38:43;14.70;99.90
9209;DHT22;4639;48.862;9.188;2023-05-07T03:41:09;14.70;99.90
9209;DHT22;4639;48.862;9.188;2023-05-07T03:43:34;14.70;99.90
9209;DHT22;4639;48.862;9.188;2023-05-07T03:46:00;14.60;99.90
9209;DHT22;4639;48.862;9.188;2023-05-07T03:48:26;14.60;99.90
9209;DHT22;4639;48.862;9.188;2023-05-07T03:50:51;14.50;99.90
9209;DHT22;4639;48.862;9.188;2023-05-07T03:53:17;14.50;99.90
9209;DHT22;4639;48.862;9.188;2023-05-07T03:55:42;14.50;99.90
9209;DHT22;4639;48.862;9.188;2023-05-07T03:58:08;14.40;99.90
9209;DHT22;4639;48.862;9.188;2023-05-07T04:00:34;14.40;99.90
9209;DHT22;4639;48.862;9.188;2023-05-07T04:03:03;14.40;99.90
9209;DHT22;4639;48.862;9.188;2023-05-07T04:05:30;14.40;99.90
9209;DHT22;4639;48.862;9.188;2023-05-07T04:07:57;14.40;99.90
9209;DHT22;4639;48.862;9.188;2023-05-07T04:10:22;14.40;99.90
9209;DHT22;4639;48.862;9.188;2023-05-07T04:12:48;14.40;99.90
9209;DHT22;4639;48.862;9.188;2023-05-07T04:15:14;14.60;99.90
9209;DHT22;4639;48.862;9.188;2023-05-07T04:17:40;14.40;99.90
9209;DHT22;4639;48.862;9.188;2023-05-07T04:20:10;14.40;99.90
9209;DHT22;4639;48.862;9.188;2023-05-07T04:22:36;14.40;99.90
9209;DHT22;4639;48.862;9.188;2023-05-07T04:25:02;14.40;99.90
9209;DHT22;4639;48.862;9.188;2023-05-07T04:27:28;14.30;99.90
9209;DHT22;4639;48.862;9.188;2023-05-07T04:29:53;14.30;99.90
9209;DHT22;4639;48.862;9.188;2023-05-07T04:32:22;14.30;99.90
9209;DHT22;4639;48.862;9.188;2023-05-07T04:34:47;14.30;99.90
9209;DHT22;4639;48.862;9.188;2023-05-07T04:37:13;14.40;99.90
9209;DHT22;4639;48.862;9.188;2023-05-07T04:39:39;14.40;99.90
9209;DHT22;4639;48.862;9.188;2023-05-07T04:42:04;14.50;99.90
9209;DHT22;4639;48.862;9.188;2023-05-07T04:44:32;14.40;99.90
9209;DHT22;4639;48.862;9.188;2023-05-07T04:46:58;14.50;99.90
9209;DHT22;4639;48.862;9.188;2023-05-07T04:49:23;14.50;99.90
9209;DHT22;4639;48.862;9.188;2023-05-07T04:51:49;14.50;99.90
9209;DHT22;4639;48.862;9.188;2023-05-07T04:54:15;14.50;99.90
9209;DHT22;4639;48.862;9.188;2023-05-07T04:56:40;14.50;99.90
9209;DHT22;4639;48.862;9.188;2023-05-07T04:59:06;14.40;99.90
9209;DHT22;4639;48.862;9.188;2023-05-07T05:01:33;14.50;99.90
9209;DHT22;4639;48.862;9.188;2023-05-07T05:03:58;14.70;99.90
9209;DHT22;4639;48.862;9.188;2023-05-07T05:06:25;14.50;99.90
9209;DHT22;4639;48.862;9.188;2023-05-07T05:08:51;14.50;99.90
9209;DHT22;4639;48.862;9.188;2023-05-07T05:11:16;14.60;99.90
9209;DHT22;4639;48.862;9.188;2023-05-07T05:13:42;14.70;99.90
9209;DHT22;4639;48.862;9.188;2023-05-07T05:16:08;14.60;99.90
9209;DHT22;4639;48.862;9.188;2023-05-07T05:18:33;14.60;99.90
9209;DHT22;4639;48.862;9.188;2023-05-07T05:20:59;14.70;99.90
9209;DHT22;4639;48.862;9.188;2023-05-07T05:23:24;14.80;99.90
9209;DHT22;4639;48.862;9.188;2023-05-07T05:25:50;14.80;99.90
9209;DHT22;4639;48.862;9.188;2023-05-07T05:28:15;14.80;99.90
9209;DHT22;4639;48.862;9.188;2023-05-07T05:30:41;14.90;99.90
9209;DHT22;4639;48.862;9.188;2023-05-07T05:33:06;14.70;99.90
9209;DHT22;4639;48.862;9.188;2023-05-07T05:35:32;14.70;99.90
9209;DHT22;4639;48.862;9.188;2023-05-07T05:37:58;14.80;99.90
9209;DHT22;4639;48.862;9.188;2023-05-07T05:40:23;14.90;99.90
9209;DHT22;4639;48.862;9.188;2023-05-07T05:42:49;14.90;99.90
9209;DHT22;4639;48.862;9.188;2023-05-07T05:45:14;14.90;99.90
9209;DHT22;4639;48.862;9.188;2023-05-07T05:47:41;15.00;99.90
9209;DHT22;4639;48.862;9.188;2023-05-07T05:50:07;15.00;99.90
9209;DHT22;4639;48.862;9.188;2023-05-07T05:52:32;15.10;99.90
9209;DHT22;4639;48.862;9.188;2023-05-07T05:54:58;15.00;99.90
9209;DHT22;4639;48.862;9.188;2023-05-07T05:57:23;15.00;99.90
9209;DHT22;4639;48.862;9.188;2023-05-07T05:59:49;15.00;99.90
9209;DHT22;4639;48.862;9.188;2023-05-07T06:02:15;15.00;99.90
9209;DHT22;4639;48.862;9.188;2023-05-07T06:04:40;15.10;99.90
9209;DHT22;4639;48.862;9.188;2023-05-07T06:07:07;15.40;99.90
9209;DHT22;4639;48.862;9.188;2023-05-07T06:09:33;15.30;99.90
9209;DHT22;4639;48.862;9.188;2023-05-07T06:11:58;15.40;99.90
9209;DHT22;4639;48.862;9.188;2023-05-07T06:14:24;15.50;99.90
9209;DHT22;4639;48.862;9.188;2023-05-07T06:16:49;15.70;99.90
9209;DHT22;4639;48.862;9.188;2023-05-07T06:19:15;15.80;99.90
9209;DHT22;4639;48.862;9.188;2023-05-07T06:21:43;15.90;99.90
9209;DHT22;4639;48.862;9.188;2023-05-07T06:24:09;16.00;99.90
9209;DHT22;4639;48.862;9.188;2023-05-07T06:26:34;16.00;99.90
9209;DHT22;4639;48.862;9.188;2023-05-07T06:29:00;16.10;99.90
9209;DHT22;4639;48.862;9.188;2023-05-07T06:31:29;16.00;99.90
9209;DHT22;4639;48.862;9.188;2023-05-07T06:33:56;16.00;99.90
9209;DHT22;4639;48.862;9.188;2023-05-07T06:36:22;16.00;99.90
9209;DHT22;4639;48.862;9.188;2023-05-07T06:38:47;16.10;99.90
9209;DHT22;4639;48.862;9.188;2023-05-07T06:41:13;15.90;99.90
9209;DHT22;4639;48.862;9.188;2023-05-07T06:43:38;15.90;99.90
9209;DHT22;4639;48.862;9.188;2023-05-07T06:46:05;16.00;99.90
9209;DHT22;4639;48.862;9.188;2023-05-07T06:48:31;16.10;99.90
9209;DHT22;4639;48.862;9.188;2023-05-07T06:50:56;16.20;99.90
9209;DHT22;4639;48.862;9.188;2023-05-07T06:53:23;16.40;99.90
9209;DHT22;4639;48.862;9.188;2023-05-07T06:55:49;16.40;99.90
9209;DHT22;4639;48.862;9.188;2023-05-07T06:58:14;16.40;99.90
9209;DHT22;4639;48.862;9.188;2023-05-07T07:00:40;16.80;99.90
9209;DHT22;4639;48.862;9.188;2023-05-07T07:03:06;16.70;99.90
9209;DHT22;4639;48.862;9.188;2023-05-07T07:05:32;16.70;99.90
9209;DHT22;4639;48.862;9.188;2023-05-07T07:07:57;16.70;99.90
9209;DHT22;4639;48.862;9.188;2023-05-07T07:10:23;16.70;99.90
9209;DHT22;4639;48.862;9.188;2023-05-07T07:12:49;16.80;99.90
9209;DHT22;4639;48.862;9.188;2023-05-07T07:15:15;16.80;99.90
9209;DHT22;4639;48.862;9.188;2023-05-07T07:17:41;16.80;99.90
9209;DHT22;4639;48.862;9.188;2023-05-07T07:20:07;16.90;99.90
9209;DHT22;4639;48.862;9.188;2023-05-07T07:22:33;17.00;99.90
9209;DHT22;4639;48.862;9.188;2023-05-07T07:24:58;17.10;99.90
9209;DHT22;4639;48.862;9.188;2023-05-07T07:27:24;17.30;99.90
9209;DHT22;4639;48.862;9.188;2023-05-07T07:29:49;17.50;99.90
9209;DHT22;4639;48.862;9.188;2023-05-07T07:32:15;17.60;99.90
9209;DHT22;4639;48.862;9.188;2023-05-07T07:34:41;17.70;99.90
9209;DHT22;4639;48.862;9.188;2023-05-07T07:37:06;17.80;99.90
9209;DHT22;4639;48.862;9.188;2023-05-07T07:39:32;17.90;99.90
9209;DHT22;4639;48.862;9.188;2023-05-07T07:41:58;18.00;99.90
9209;DHT22;4639;48.862;9.188;2023-05-07T07:44:24;18.20;99.90
9209;DHT22;4639;48.862;9.188;2023-05-07T07:46:49;18.30;99.90
9209;DHT22;4639;48.862;9.188;2023-05-07T07:49:16;18.40;99.90
9209;DHT22;4639;48.862;9.188;2023-05-07T07:51:41;18.60;99.90
9209;DHT22;4639;48.862;9.188;2023-05-07T07:54:07;18.60;99.90
9209;DHT22;4639;48.862;9.188;2023-05-07T07:56:33;18.60;99.90
9209;DHT22;4639;48.862;9.188;2023-05-07T07:58:59;18.70;99.90
9209;DHT22;4639;48.862;9.188;2023-05-07T08:01:24;18.60;99.90
9209;DHT22;4639;48.862;9.188;2023-05-07T08:03:51;18.70;99.90
9209;DHT22;4639;48.862;9.188;2023-05-07T08:06:17;18.80;99.90
9209;DHT22;4639;48.862;9.188;2023-05-07T08:08:42;18.90;99.90
9209;DHT22;4639;48.862;9.188;2023-05-07T08:11:08;19.00;99.90
9209;DHT22;4639;48.862;9.188;2023-05-07T08:13:34;18.90;99.90
9209;DHT22;4639;48.862;9.188;2023-05-07T08:16:00;19.00;99.90
9209;DHT22;4639;48.862;9.188;2023-05-07T08:18:25;19.00;99.90
9209;DHT22;4639;48.862;9.188;2023-05-07T08:20:51;19.10;99.90
9209;DHT22;4639;48.862;9.188;2023-05-07T08:23:17;19.10;99.90
9209;DHT22;4639;48.862;9.188;2023-05-07T08:25:42;19.10;99.90
9209;DHT22;4639;48.862;9.188;2023-05-07T08:28:08;19.20;99.90
9209;DHT22;4639;48.862;9.188;2023-05-07T08:30:34;19.40;99.90
9209;DHT22;4639;48.862;9.188;2023-05-07T08:33:00;19.50;99.90
9209;DHT22;4639;48.862;9.188;2023-05-07T08:35:26;19.70;99.90
9209;DHT22;4639;48.862;9.188;2023-05-07T08:37:52;19.80;99.90
9209;DHT22;4639;48.862;9.188;2023-05-07T08:40:18;19.90;99.90
9209;DHT22;4639;48.862;9.188;2023-05-07T08:42:44;19.80;99.90
9209;DHT22;4639;48.862;9.188;2023-05-07T08:45:10;19.80;99.90
9209;DHT22;4639;48.862;9.188;2023-05-07T08:47:58;20.00;99.90
9209;DHT22;4639;48.862;9.188;2023-05-07T08:50:25;20.40;99.90
9209;DHT22;4639;48.862;9.188;2023-05-07T08:52:50;20.60;99.90
9209;DHT22;4639;48.862;9.188;2023-05-07T08:55:16;20.90;99.90
9209;DHT22;4639;48.862;9.188;2023-05-07T08:57:42;21.20;99.90
9209;DHT22;4639;48.862;9.188;2023-05-07T09:00:08;21.20;99.90
9209;DHT22;4639;48.862;9.188;2023-05-07T09:02:35;21.30;99.90
9209;DHT22;4639;48.862;9.188;2023-05-07T09:05:01;21.60;99.90
9209;DHT22;4639;48.862;9.188;2023-05-07T09:07:27;21.80;99.90
9209;DHT22;4639;48.862;9.188;2023-05-07T09:09:56;21.90;99.90
9209;DHT22;4639;48.862;9.188;2023-05-07T09:12:22;22.10;99.90
9209;DHT22;4639;48.862;9.188;2023-05-07T09:14:48;22.10;99.90
9209;DHT22;4639;48.862;9.188;2023-05-07T09:17:15;22.30;99.90
9209;DHT22;4639;48.862;9.188;2023-05-07T09:19:41;22.50;99.90
9209;DHT22;4639;48.862;9.188;2023-05-07T09:22:08;22.80;99.90
9209;DHT22;4639;48.862;9.188;2023-05-07T09:24:34;22.80;99.90
9209;DHT22;4639;48.862;9.188;2023-05-07T09:27:03;22.70;99.90
9209;DHT22;4639;48.862;9.188;2023-05-07T09:29:29;22.60;99.90
9209;DHT22;4639;48.862;9.188;2023-05-07T09:31:55;22.50;99.90
9209;DHT22;4639;48.862;9.188;2023-05-07T09:34:21;22.60;99.90
9209;DHT22;4639;48.862;9.188;2023-05-07T09:36:47;22.60;99.90
9209;DHT22;4639;48.862;9.188;2023-05-07T09:39:13;23.20;99.90
9209;DHT22;4639;48.862;9.188;2023-05-07T09:41:46;23.70;99.90
9209;DHT22;4639;48.862;9.188;2023-05-07T09:44:13;23.70;99.90
9209;DHT22;4639;48.862;9.188;2023-05-07T09:46:42;24.00;99.90
9209;DHT22;4639;48.862;9.188;2023-05-07T09:49:12;24.30;99.90
9209;DHT22;4639;48.862;9.188;2023-05-07T09:51:48;24.30;99.90
9209;DHT22;4639;48.862;9.188;2023-05-07T09:54:15;24.50;99.90
9209;DHT22;4639;48.862;9.188;2023-05-07T09:56:41;24.70;99.90
9209;DHT22;4639;48.862;9.188;2023-05-07T09:59:08;24.80;99.90
9209;DHT22;4639;48.862;9.188;2023-05-07T10:01:36;24.90;99.90
9209;DHT22;4639;48.862;9.188;2023-05-07T10:04:03;25.00;99.90
9209;DHT22;4639;48.862;9.188;2023-05-07T10:06:30;25.20;99.90
9209;DHT22;4639;48.862;9.188;2023-05-07T10:08:56;25.50;99.90
9209;DHT22;4639;48.862;9.188;2023-05-07T10:11:22;25.40;99.90
9209;DHT22;4639;48.862;9.188;2023-05-07T10:13:48;25.40;99.90
9209;DHT22;4639;48.862;9.188;2023-05-07T10:16:14;25.70;99.90
9209;DHT22;4639;48.862;9.188;2023-05-07T10:18:41;26.00;99.90
9209;DHT22;4639;48.862;9.188;2023-05-07T10:21:21;26.00;99.90
9209;DHT22;4639;48.862;9.188;2023-05-07T10:26:36;26.00;99.90
9209;DHT22;4639;48.862;9.188;2023-05-07T10:35:03;26.50;99.90
9209;DHT22;4639;48.862;9.188;2023-05-07T10:37:31;26.70;99.90
9209;DHT22;4639;48.862;9.188;2023-05-07T10:39:57;26.80;99.90
9209;DHT22;4639;48.862;9.188;2023-05-07T10:42:23;26.50;99.90
9209;DHT22;4639;48.862;9.188;2023-05-07T10:44:49;25.90;99.90
9209;DHT22;4639;48.862;9.188;2023-05-07T10:47:16;25.50;99.90
9209;DHT22;4639;48.862;9.188;2023-05-07T10:54:42;25.00;99.90
9209;DHT22;4639;48.862;9.188;2023-05-07T10:57:37;25.20;99.90
9209;DHT22;4639;48.862;9.188;2023-05-07T11:05:25;25.00;99.90
9209;DHT22;4639;48.862;9.188;2023-05-07T11:07:58;25.20;99.90
9209;DHT22;4639;48.862;9.188;2023-05-07T11:10:51;25.40;99.90
9209;DHT22;4639;48.862;9.188;2023-05-07T11:13:17;25.40;99.90
9209;DHT22;4639;48.862;9.188;2023-05-07T11:15:47;25.30;99.90
9209;DHT22;4639;48.862;9.188;2023-05-07T11:18:17;25.30;99.90
9209;DHT22;4639;48.862;9.188;2023-05-07T11:20:50;25.30;99.90
9209;DHT22;4639;48.862;9.188;2023-05-07T11:26:10;25.40;99.90
9209;DHT22;4639;48.862;9.188;2023-05-07T11:28:40;25.30;99.90
9209;DHT22;4639;48.862;9.188;2023-05-07T11:31:06;25.30;99.90
9209;DHT22;4639;48.862;9.188;2023-05-07T11:33:33;25.00;99.90
9209;DHT22;4639;48.862;9.188;2023-05-07T11:35:59;24.90;99.90
9209;DHT22;4639;48.862;9.188;2023-05-07T11:38:25;24.90;99.90
9209;DHT22;4639;48.862;9.188;2023-05-07T11:40:52;24.90;99.90
9209;DHT22;4639;48.862;9.188;2023-05-07T11:43:19;24.90;99.90
9209;DHT22;4639;48.862;9.188;2023-05-07T11:45:45;24.90;99.90
9209;DHT22;4639;48.862;9.188;2023-05-07T11:48:12;24.90;99.90
9209;DHT22;4639;48.862;9.188;2023-05-07T11:51:08;24.90;99.90
9209;DHT22;4639;48.862;9.188;2023-05-07T11:53:42;25.00;99.90
9209;DHT22;4639;48.862;9.188;2023-05-07T11:56:12;24.80;99.90
9209;DHT22;4639;48.862;9.188;2023-05-07T11:58:40;24.90;99.90
9209;DHT22;4639;48.862;9.188;2023-05-07T12:01:08;24.80;99.90
9209;DHT22;4639;48.862;9.188;2023-05-07T12:03:35;24.80;99.90
9209;DHT22;4639;48.862;9.188;2023-05-07T12:06:03;24.90;99.90
9209;DHT22;4639;48.862;9.188;2023-05-07T12:08:30;24.90;99.90
9209;DHT22;4639;48.862;9.188;2023-05-07T12:10:56;24.80;99.90
9209;DHT22;4639;48.862;9.188;2023-05-07T12:13:25;24.70;99.90
9209;DHT22;4639;48.862;9.188;2023-05-07T12:15:55;24.60;99.90
9209;DHT22;4639;48.862;9.188;2023-05-07T12:18:21;24.60;99.90
9209;DHT22;4639;48.862;9.188;2023-05-07T12:20:48;24.50;99.90
9209;DHT22;4639;48.862;9.188;2023-05-07T12:23:14;24.30;99.90
9209;DHT22;4639;48.862;9.188;2023-05-07T12:25:41;24.20;99.90
9209;DHT22;4639;48.862;9.188;2023-05-07T12:28:14;24.30;99.90
9209;DHT22;4639;48.862;9.188;2023-05-07T12:30:42;24.30;99.90
9209;DHT22;4639;48.862;9.188;2023-05-07T12:33:08;24.40;99.90
9209;DHT22;4639;48.862;9.188;2023-05-07T12:35:38;24.40;99.90
9209;DHT22;4639;48.862;9.188;2023-05-07T12:38:08;24.40;99.90
9209;DHT22;4639;48.862;9.188;2023-05-07T12:40:41;24.30;99.90
9209;DHT22;4639;48.862;9.188;2023-05-07T12:43:14;24.30;99.90
9209;DHT22;4639;48.862;9.188;2023-05-07T12:45:41;24.30;99.90
9209;DHT22;4639;48.862;9.188;2023-05-07T12:48:09;24.20;99.90
9209;DHT22;4639;48.862;9.188;2023-05-07T12:50:38;24.00;99.90
9209;DHT22;4639;48.862;9.188;2023-05-07T12:53:05;23.80;99.90
9209;DHT22;4639;48.862;9.188;2023-05-07T12:55:31;23.40;99.90
9209;DHT22;4639;48.862;9.188;2023-05-07T12:58:00;22.90;99.90
9209;DHT22;4639;48.862;9.188;2023-05-07T13:00:34;22.30;99.90
9209;DHT22;4639;48.862;9.188;2023-05-07T13:03:00;21.80;99.90
9209;DHT22;4639;48.862;9.188;2023-05-07T13:05:26;21.10;99.90
9209;DHT22;4639;48.862;9.188;2023-05-07T13:07:55;20.80;99.90
9209;DHT22;4639;48.862;9.188;2023-05-07T13:10:25;20.50;99.90
9209;DHT22;4639;48.862;9.188;2023-05-07T13:12:51;20.10;99.90
9209;DHT22;4639;48.862;9.188;2023-05-07T13:15:17;19.90;99.90
9209;DHT22;4639;48.862;9.188;2023-05-07T13:17:43;19.80;99.90
9209;DHT22;4639;48.862;9.188;2023-05-07T13:20:12;19.70;99.90
9209;DHT22;4639;48.862;9.188;2023-05-07T13:22:38;19.70;99.90
9209;DHT22;4639;48.862;9.188;2023-05-07T13:25:04;19.70;99.90
9209;DHT22;4639;48.862;9.188;2023-05-07T13:27:30;19.70;99.90
9209;DHT22;4639;48.862;9.188;2023-05-07T13:30:02;19.60;99.90
9209;DHT22;4639;48.862;9.188;2023-05-07T13:32:28;19.60;99.90
9209;DHT22;4639;48.862;9.188;2023-05-07T13:34:53;19.50;99.90
9209;DHT22;4639;48.862;9.188;2023-05-07T13:37:19;19.30;99.90
9209;DHT22;4639;48.862;9.188;2023-05-07T13:39:45;19.30;99.90
9209;DHT22;4639;48.862;9.188;2023-05-07T13:42:11;18.60;99.90
9209;DHT22;4639;48.862;9.188;2023-05-07T13:44:36;18.20;99.90
9209;DHT22;4639;48.862;9.188;2023-05-07T13:47:02;17.90;99.90
9209;DHT22;4639;48.862;9.188;2023-05-07T13:49:28;17.80;99.90
9209;DHT22;4639;48.862;9.188;2023-05-07T13:51:53;17.70;99.90
9209;DHT22;4639;48.862;9.188;2023-05-07T13:54:19;17.70;99.90
9209;DHT22;4639;48.862;9.188;2023-05-07T13:56:44;17.70;99.90
9209;DHT22;4639;48.862;9.188;2023-05-07T13:59:10;17.80;99.90
9209;DHT22;4639;48.862;9.188;2023-05-07T14:01:35;17.80;99.90
9209;DHT22;4639;48.862;9.188;2023-05-07T14:04:01;17.80;99.90
9209;DHT22;4639;48.862;9.188;2023-05-07T14:06:27;17.80;99.90
9209;DHT22;4639;48.862;9.188;2023-05-07T14:08:52;17.90;99.90
9209;DHT22;4639;48.862;9.188;2023-05-07T14:11:18;18.00;99.90
9209;DHT22;4639;48.862;9.188;2023-05-07T14:13:43;18.10;99.90
9209;DHT22;4639;48.862;9.188;2023-05-07T14:16:09;18.10;99.90
9209;DHT22;4639;48.862;9.188;2023-05-07T14:18:34;18.00;99.90
9209;DHT22;4639;48.862;9.188;2023-05-07T14:21:02;18.00;99.90
9209;DHT22;4639;48.862;9.188;2023-05-07T14:23:28;17.90;99.90
9209;DHT22;4639;48.862;9.188;2023-05-07T14:25:53;17.70;99.90
9209;DHT22;4639;48.862;9.188;2023-05-07T14:28:19;17.50;99.90
9209;DHT22;4639;48.862;9.188;2023-05-07T14:30:45;17.50;99.90
9209;DHT22;4639;48.862;9.188;2023-05-07T14:33:10;17.50;99.90
9209;DHT22;4639;48.862;9.188;2023-05-07T14:35:36;17.40;99.90
9209;DHT22;4639;48.862;9.188;2023-05-07T14:38:01;17.50;99.90
9209;DHT22;4639;48.862;9.188;2023-05-07T14:40:27;17.50;99.90
9209;DHT22;4639;48.862;9.188;2023-05-07T14:42:55;17.60;99.90
9209;DHT22;4639;48.862;9.188;2023-05-07T14:45:22;17.60;99.90
9209;DHT22;4639;48.862;9.188;2023-05-07T14:47:48;17.80;99.90
9209;DHT22;4639;48.862;9.188;2023-05-07T14:50:13;17.70;99.90
9209;DHT22;4639;48.862;9.188;2023-05-07T14:52:39;17.70;99.90
9209;DHT22;4639;48.862;9.188;2023-05-07T14:55:05;17.70;99.90
9209;DHT22;4639;48.862;9.188;2023-05-07T14:57:31;17.70;99.90
9209;DHT22;4639;48.862;9.188;2023-05-07T15:00:00;17.70;99.90
9209;DHT22;4639;48.862;9.188;2023-05-07T15:02:26;17.80;99.90
9209;DHT22;4639;48.862;9.188;2023-05-07T15:04:52;17.90;99.90
9209;DHT22;4639;48.862;9.188;2023-05-07T15:07:18;17.90;99.90
9209;DHT22;4639;48.862;9.188;2023-05-07T15:09:44;18.10;99.90
9209;DHT22;4639;48.862;9.188;2023-05-07T15:12:10;18.30;99.90
9209;DHT22;4639;48.862;9.188;2023-05-07T15:14:37;18.30;99.90
9209;DHT22;4639;48.862;9.188;2023-05-07T15:17:03;18.40;99.90
9209;DHT22;4639;48.862;9.188;2023-05-07T15:19:28;18.50;99.90
9209;DHT22;4639;48.862;9.188;2023-05-07T15:21:57;18.50;99.90
9209;DHT22;4639;48.862;9.188;2023-05-07T15:24:23;18.60;99.90
9209;DHT22;4639;48.862;9.188;2023-05-07T15:26:49;18.50;99.90
9209;DHT22;4639;48.862;9.188;2023-05-07T15:29:14;18.50;99.90
9209;DHT22;4639;48.862;9.188;2023-05-07T15:31:40;18.60;99.90
9209;DHT22;4639;48.862;9.188;2023-05-07T15:34:06;18.70;99.90
9209;DHT22;4639;48.862;9.188;2023-05-07T15:36:32;18.80;99.90
9209;DHT22;4639;48.862;9.188;2023-05-07T15:38:58;18.90;99.90
9209;DHT22;4639;48.862;9.188;2023-05-07T15:41:24;18.90;99.90
9209;DHT22;4639;48.862;9.188;2023-05-07T15:43:51;18.90;99.90
9209;DHT22;4639;48.862;9.188;2023-05-07T15:46:18;18.90;99.90
9209;DHT22;4639;48.862;9.188;2023-05-07T15:48:44;18.90;99.90
9209;DHT22;4639;48.862;9.188;2023-05-07T15:51:10;19.10;99.90
9209;DHT22;4639;48.862;9.188;2023-05-07T15:53:36;18.80;99.90
9209;DHT22;4639;48.862;9.188;2023-05-07T15:56:02;18.90;99.90
9209;DHT22;4639;48.862;9.188;2023-05-07T15:58:28;18.90;99.90
9209;DHT22;4639;48.862;9.188;2023-05-07T16:00:53;19.00;99.90
9209;DHT22;4639;48.862;9.188;2023-05-07T16:03:19;19.30;99.90
9209;DHT22;4639;48.862;9.188;2023-05-07T16:05:46;19.10;99.90
9209;DHT22;4639;48.862;9.188;2023-05-07T16:08:12;19.10;99.90
9209;DHT22;4639;48.862;9.188;2023-05-07T16:10:38;19.10;99.90
9209;DHT22;4639;48.862;9.188;2023-05-07T16:13:03;19.10;99.90
9209;DHT22;4639;48.862;9.188;2023-05-07T16:15:29;19.10;99.90
9209;DHT22;4639;48.862;9.188;2023-05-07T16:17:54;19.00;99.90
9209;DHT22;4639;48.862;9.188;2023-05-07T16:20:31;18.90;99.90